createdAt,value
2019-04-16T00:02:09.275Z,43.10
2019-04-16T00:05:04.758Z,48.53
2019-04-16T00:08:10.069Z,42.40
2019-04-16T00:11:09.052Z,48.33
2019-04-16T00:13:42.525Z,41.00
2019-04-16T00:16:13.647Z,46.20
2019-04-16T00:18:56.601Z,45.13
2019-04-16T00:21:38.501Z,46.53
2019-04-16T00:24:27.076Z,50.80
2019-04-16T00:26:59.375Z,48.57
2019-04-16T00:29:32.637Z,49.63
2019-04-16T00:32:09.092Z,47.70
2019-04-16T00:34:38.000Z,48.63
2019-04-16T00:37:08.344Z,49.67
2019-04-16T00:39:38.719Z,48.50
2019-04-16T00:42:09.084Z,52.67
2019-04-16T00:44:39.442Z,49.43
2019-04-16T00:47:09.797Z,56.10
2019-04-16T00:49:40.154Z,47.60
2019-04-16T00:52:10.467Z,48.03
2019-04-16T00:54:42.355Z,50.73
2019-04-16T00:57:12.074Z,52.60
2019-04-16T00:59:41.787Z,47.57
2019-04-16T01:02:12.048Z,55.53
2019-04-16T01:04:41.740Z,52.17
2019-04-16T01:07:11.990Z,59.17
2019-04-16T01:09:41.679Z,48.10
2019-04-16T01:12:11.959Z,53.50
2019-04-16T01:14:42.288Z,54.33
2019-04-16T01:17:12.642Z,51.33
2019-04-16T01:19:42.980Z,57.30
2019-04-16T01:22:15.774Z,55.93
2019-04-16T01:24:45.356Z,55.80
2019-04-16T01:27:16.003Z,52.73
2019-04-16T01:29:46.359Z,53.23
2019-04-16T01:32:35.080Z,54.30
2019-04-16T01:35:36.880Z,55.37
2019-04-16T01:38:27.652Z,51.53
2019-04-16T01:41:02.329Z,51.70
2019-04-16T01:43:32.016Z,50.67
2019-04-16T01:46:02.439Z,52.03
2019-04-16T01:48:32.516Z,51.30
2019-04-16T01:51:02.761Z,56.53
2019-04-16T01:53:32.504Z,48.63
2019-04-16T01:56:02.090Z,50.87
2019-04-16T01:58:33.828Z,47.97
2019-04-16T02:01:04.517Z,54.00
2019-04-16T02:03:34.872Z,50.87
2019-04-16T02:06:05.402Z,52.17
2019-04-16T02:08:35.898Z,47.67
2019-04-16T02:11:09.560Z,52.67
2019-04-16T02:13:38.235Z,53.97
2019-04-16T02:16:08.587Z,49.77
2019-04-16T02:18:38.940Z,49.10
2019-04-16T02:21:10.752Z,52.03
2019-04-16T02:23:41.443Z,53.63
2019-04-16T02:26:11.136Z,53.73
2019-04-16T02:28:41.408Z,50.80
2019-04-16T02:31:15.651Z,59.63
2019-04-16T02:33:42.968Z,59.37
2019-04-16T02:36:12.964Z,50.43
2019-04-16T02:38:52.649Z,55.70
2019-04-16T02:41:15.366Z,52.27
2019-04-16T02:43:45.714Z,57.57
2019-04-16T02:46:16.064Z,54.70
2019-04-16T02:48:50.282Z,48.87
2019-04-16T02:51:41.187Z,51.70
2019-04-16T02:54:34.429Z,50.53
2019-04-16T02:57:26.640Z,58.67
2019-04-16T02:59:57.051Z,54.30
2019-04-16T03:02:44.677Z,55.77
2019-04-16T03:05:39.120Z,51.93
2019-04-16T03:08:09.373Z,58.10
2019-04-16T03:10:41.780Z,54.97
2019-04-16T03:13:11.715Z,54.43
2019-04-16T03:16:02.773Z,57.43
2019-04-16T03:18:48.318Z,54.93
2019-04-16T03:21:18.779Z,60.37
2019-04-16T03:23:48.469Z,59.53
2019-04-16T03:26:18.714Z,55.37
2019-04-16T03:28:49.053Z,57.90
2019-04-16T03:31:22.958Z,56.33
2019-04-16T03:33:51.119Z,56.00
2019-04-16T03:36:22.013Z,51.67
2019-04-16T03:38:52.360Z,58.13
2019-04-16T03:41:25.061Z,63.93
2019-04-16T03:43:54.707Z,60.63
2019-04-16T03:46:24.435Z,55.63
2019-04-16T03:48:56.076Z,56.23
2019-04-16T03:51:26.846Z,58.00
2019-04-16T03:53:57.200Z,61.47
2019-04-16T03:56:30.648Z,60.47
2019-04-16T03:58:59.536Z,57.83
2019-04-16T04:01:29.895Z,57.77
2019-04-16T04:04:00.232Z,61.40
2019-04-16T04:06:30.624Z,57.80
2019-04-16T04:09:01.016Z,63.63
2019-04-16T04:11:31.332Z,58.80
2019-04-16T04:14:01.660Z,60.23
2019-04-16T04:16:33.602Z,57.03
2019-04-16T04:19:04.004Z,62.87
2019-04-16T04:21:33.715Z,57.67
2019-04-16T04:24:03.965Z,60.10
2019-04-16T04:26:34.328Z,60.53
2019-04-16T04:29:06.242Z,63.00
2019-04-16T04:31:36.827Z,65.35
2019-04-16T04:34:09.849Z,61.70
2019-04-16T04:36:38.443Z,58.73
2019-04-16T04:39:10.530Z,63.07
2019-04-16T04:41:40.783Z,61.17
2019-04-16T04:44:11.135Z,62.10
2019-04-16T04:46:43.283Z,68.33
2019-04-16T04:49:13.484Z,66.07
2019-04-16T04:51:43.651Z,63.17
2019-04-16T04:54:14.021Z,61.73
2019-04-16T04:56:44.413Z,70.10
2019-04-16T04:59:14.906Z,64.90
2019-04-16T05:01:45.234Z,61.07
2019-04-16T05:04:33.927Z,58.07
2019-04-16T05:07:06.403Z,57.50
2019-04-16T05:09:39.083Z,62.30
2019-04-16T05:12:09.453Z,59.85
2019-04-16T05:14:50.946Z,66.47
2019-04-16T05:17:21.504Z,66.50
2019-04-16T05:19:51.855Z,63.80
2019-04-16T05:22:22.345Z,66.27
2019-04-16T05:24:52.706Z,63.23
2019-04-16T05:27:22.390Z,67.90
2019-04-16T05:29:52.676Z,64.43
2019-04-16T05:32:25.676Z,62.77
2019-04-16T05:34:54.358Z,63.10
2019-04-16T05:37:23.956Z,59.40
2019-04-16T05:39:58.557Z,63.83
2019-04-16T05:42:27.155Z,68.52
2019-04-16T05:44:56.860Z,71.53
2019-04-16T05:47:27.140Z,63.50
2019-04-16T05:49:57.953Z,64.47
2019-04-16T05:52:29.092Z,62.70
2019-04-16T05:55:22.960Z,65.80
2019-04-16T05:57:57.893Z,59.00
2019-04-16T06:00:35.482Z,62.40
2019-04-16T06:03:05.134Z,62.87
2019-04-16T06:05:35.385Z,63.07
2019-04-16T06:08:14.020Z,65.07
2019-04-16T06:10:44.325Z,67.93
2019-04-16T06:13:33.583Z,60.63
2019-04-16T06:16:25.533Z,64.03
2019-04-16T06:19:14.230Z,66.87
2019-04-16T06:22:01.816Z,66.73
2019-04-16T06:24:49.860Z,64.57
2019-04-16T06:27:34.524Z,67.27
2019-04-16T06:30:23.528Z,66.73
2019-04-16T06:33:14.960Z,65.27
2019-04-16T06:36:02.599Z,64.00
2019-04-16T06:38:45.395Z,60.90
2019-04-16T06:41:41.786Z,60.37
2019-04-16T06:44:13.452Z,61.10
2019-04-16T06:47:01.392Z,63.23
2019-04-16T06:50:05.273Z,64.10
2019-04-16T06:52:53.289Z,64.47
2019-04-16T06:55:45.593Z,58.07
2019-04-16T06:58:50.869Z,60.07
2019-04-16T07:01:27.215Z,65.17
2019-04-16T07:04:00.032Z,64.70
2019-04-16T07:07:01.958Z,59.60
2019-04-16T07:09:41.656Z,59.07
2019-04-16T07:12:14.267Z,62.13
2019-04-16T07:14:45.526Z,62.00
2019-04-16T07:17:18.327Z,56.57
2019-04-16T07:19:47.848Z,58.30
2019-04-16T07:22:21.425Z,57.07
2019-04-16T07:24:55.503Z,58.20
2019-04-16T07:27:29.382Z,57.17
2019-04-16T07:30:06.897Z,59.03
2019-04-16T07:33:06.531Z,56.30
2019-04-16T07:36:04.339Z,63.43
2019-04-16T07:38:57.869Z,52.07
2019-04-16T07:41:35.124Z,53.08
2019-04-16T07:44:15.590Z,49.07
2019-04-16T07:46:59.807Z,47.30
2019-04-16T07:50:07.341Z,44.57
2019-04-16T07:52:56.710Z,48.30
2019-04-16T07:55:46.048Z,54.30
2019-04-16T07:58:16.566Z,48.60
2019-04-16T08:00:47.410Z,49.60
2019-04-16T08:03:17.204Z,47.80
2019-04-16T08:05:46.859Z,47.10
2019-04-16T08:08:16.559Z,43.93
2019-04-16T08:10:46.182Z,49.03
2019-04-16T08:13:26.927Z,47.57
2019-04-16T08:15:57.481Z,44.83
2019-04-16T08:18:27.847Z,45.83
2019-04-16T08:21:02.117Z,46.60
2019-04-16T08:23:52.864Z,45.73
2019-04-16T08:26:22.497Z,49.07
2019-04-16T08:28:52.763Z,50.30
2019-04-16T08:31:25.139Z,46.77
2019-04-16T08:33:55.692Z,44.30
2019-04-16T08:36:26.103Z,45.00
2019-04-16T08:38:56.530Z,42.33
2019-04-16T08:41:26.311Z,43.87
2019-04-16T08:43:55.913Z,42.53
2019-04-16T08:46:28.151Z,46.53
2019-04-16T08:48:58.167Z,47.60
2019-04-16T08:51:30.671Z,45.00
2019-04-16T08:54:00.600Z,106.97
2019-04-16T08:56:30.971Z,41.73
2019-04-16T08:59:01.465Z,39.80
2019-04-16T09:01:33.244Z,43.43
2019-04-16T09:04:03.544Z,40.43
2019-04-16T09:06:33.904Z,42.13
2019-04-16T09:09:24.681Z,38.23
2019-04-16T09:11:57.652Z,38.87
2019-04-16T09:14:29.607Z,38.63
2019-04-16T09:17:09.619Z,36.27
2019-04-16T09:19:40.444Z,38.77
2019-04-16T09:22:15.551Z,36.17
2019-04-16T09:25:00.452Z,36.87
2019-04-16T09:27:36.580Z,36.47
2019-04-16T09:30:20.836Z,34.50
2019-04-16T09:33:02.489Z,37.40
2019-04-16T09:35:40.371Z,36.93
2019-04-16T09:38:47.532Z,37.47
2019-04-16T09:41:23.086Z,39.33
2019-04-16T09:43:57.365Z,36.80
2019-04-16T09:46:49.124Z,41.17
2019-04-16T09:48:57.865Z,41.73
2019-04-16T09:51:28.132Z,46.67
2019-04-16T09:53:58.639Z,48.67
2019-04-16T09:56:30.104Z,48.30
2019-04-16T09:59:05.981Z,51.67
2019-04-16T10:01:47.963Z,49.40
2019-04-16T10:04:19.511Z,47.90
2019-04-16T10:06:49.248Z,51.07
2019-04-16T10:09:21.686Z,48.93
2019-04-16T10:11:50.809Z,50.43
2019-04-16T10:14:20.568Z,49.57
2019-04-16T10:16:50.269Z,49.23
2019-04-16T10:19:21.738Z,49.53
2019-04-16T10:21:54.236Z,55.27
2019-04-16T10:24:42.452Z,51.57
2019-04-16T10:27:18.151Z,54.10
2019-04-16T10:29:48.685Z,51.70
2019-04-16T10:32:19.323Z,52.67
2019-04-16T10:34:48.942Z,51.27
2019-04-16T10:37:18.579Z,51.07
2019-04-16T10:39:57.660Z,52.03
2019-04-16T10:42:45.693Z,56.93
2019-04-16T10:45:35.509Z,51.53
2019-04-16T10:48:20.172Z,54.77
2019-04-16T10:50:58.415Z,52.63
2019-04-16T10:53:47.771Z,49.80
2019-04-16T10:56:37.389Z,51.63
2019-04-16T10:59:34.912Z,51.93
2019-04-16T11:02:23.724Z,58.90
2019-04-16T11:05:04.950Z,53.90
2019-04-16T11:07:34.897Z,50.45
2019-04-16T11:10:05.856Z,53.10
2019-04-16T11:12:35.597Z,52.45
2019-04-16T11:15:05.720Z,51.40
2019-04-16T11:17:35.520Z,50.60
2019-04-16T11:20:06.197Z,45.20
2019-04-16T11:22:35.836Z,46.40
2019-04-16T11:25:05.808Z,45.27
2019-04-16T11:27:35.429Z,42.87
2019-04-16T11:30:09.172Z,43.83
2019-04-16T11:32:40.281Z,42.87
2019-04-16T11:35:12.960Z,49.17
2019-04-16T11:37:43.976Z,40.30
2019-04-16T11:40:13.623Z,43.03
2019-04-16T11:42:44.123Z,43.93
2019-04-16T11:45:15.349Z,40.93
2019-04-16T11:47:48.061Z,42.60
2019-04-16T11:50:17.108Z,42.90
2019-04-16T11:52:47.629Z,44.53
2019-04-16T11:55:18.320Z,43.63
2019-04-16T11:57:48.535Z,43.17
2019-04-16T12:00:25.361Z,40.87
2019-04-16T12:03:03.582Z,45.93
2019-04-16T12:05:57.550Z,45.07
2019-04-16T12:08:51.870Z,43.15
2019-04-16T12:11:29.720Z,44.77
2019-04-16T12:14:32.451Z,44.10
2019-04-16T12:17:01.305Z,44.60
2019-04-16T12:19:50.061Z,45.87
2019-04-16T12:22:23.727Z,46.30
2019-04-16T12:25:10.857Z,46.17
2019-04-16T12:28:06.530Z,42.37
2019-04-16T12:30:51.935Z,43.53
2019-04-16T12:33:32.204Z,45.50
2019-04-16T12:36:27.410Z,42.97
2019-04-16T12:39:18.366Z,43.77
2019-04-16T12:42:00.176Z,42.00
2019-04-16T12:44:46.048Z,41.73
2019-04-16T12:47:34.900Z,43.50
2019-04-16T12:50:36.331Z,47.03
2019-04-16T12:53:13.187Z,52.50
2019-04-16T12:56:08.907Z,43.03
2019-04-16T12:58:57.475Z,42.30
2019-04-16T13:01:55.414Z,39.43
2019-04-16T13:04:48.778Z,40.47
2019-04-16T13:07:41.050Z,41.70
2019-04-16T13:10:35.996Z,43.70
2019-04-16T13:13:34.560Z,42.10
2019-04-16T13:16:26.375Z,41.17
2019-04-16T13:19:18.417Z,41.43
2019-04-16T13:21:51.836Z,44.20
2019-04-16T13:24:26.380Z,44.43
2019-04-16T13:27:03.444Z,45.70
2019-04-16T13:29:33.768Z,43.70
2019-04-16T13:32:03.373Z,46.57
2019-04-16T13:34:32.992Z,45.57
2019-04-16T13:37:03.300Z,43.90
2019-04-16T13:39:52.055Z,43.98
2019-04-16T13:42:21.693Z,42.40
2019-04-16T13:45:01.064Z,44.20
2019-04-16T13:47:32.972Z,43.20
2019-04-16T13:50:11.740Z,43.73
2019-04-16T13:52:41.563Z,44.83
2019-04-16T13:55:30.238Z,55.73
2019-04-16T13:58:04.417Z,57.97
2019-04-16T14:00:44.095Z,62.87
2019-04-16T14:03:16.579Z,62.20
2019-04-16T14:05:47.037Z,63.47
2019-04-16T14:08:17.526Z,62.40
2019-04-16T14:10:47.252Z,66.30
2019-04-16T14:13:17.554Z,67.77
2019-04-16T14:15:47.911Z,67.73
2019-04-16T14:18:21.669Z,62.90
2019-04-16T14:20:50.248Z,72.57
2019-04-16T14:23:20.727Z,64.47
2019-04-16T14:25:51.191Z,63.50
2019-04-16T14:28:21.587Z,67.70
2019-04-16T14:30:51.244Z,67.63
2019-04-16T14:33:28.632Z,66.10
2019-04-16T14:35:59.008Z,66.07
2019-04-16T14:38:37.803Z,65.30
2019-04-16T14:41:08.588Z,61.07
2019-04-16T14:43:41.809Z,60.50
2019-04-16T14:46:12.293Z,70.53
2019-04-16T14:48:45.845Z,64.00
2019-04-16T14:51:14.715Z,64.60
2019-04-16T14:53:57.148Z,68.30
2019-04-16T14:56:52.109Z,65.30
2019-04-16T14:59:33.231Z,61.87
2019-04-16T15:02:09.050Z,71.27
2019-04-16T15:04:58.024Z,63.50
2019-04-16T15:07:38.868Z,64.90
2019-04-16T15:10:24.124Z,64.70
2019-04-16T15:13:01.654Z,63.57
2019-04-16T15:16:10.946Z,64.73
2019-04-16T15:19:05.020Z,60.07
2019-04-16T15:21:54.176Z,63.90
2019-04-16T15:24:51.776Z,59.53
2019-04-16T15:27:38.255Z,61.73
2019-04-16T15:30:30.655Z,61.60
2019-04-16T15:33:18.480Z,59.60
2019-04-16T15:35:53.979Z,57.73
2019-04-16T15:38:49.963Z,61.80
2019-04-16T15:41:31.236Z,66.73
2019-04-16T15:44:11.734Z,61.73
2019-04-16T15:47:13.384Z,67.93
2019-04-16T15:49:49.704Z,67.57
2019-04-16T15:52:37.831Z,61.60
2019-04-16T15:55:42.247Z,63.97
2019-04-16T15:58:23.526Z,63.33
2019-04-16T16:01:30.576Z,65.00
2019-04-16T16:04:15.675Z,65.13
2019-04-16T16:07:03.301Z,62.93
2019-04-16T16:10:12.355Z,70.80
2019-04-16T16:12:39.975Z,67.33
2019-04-16T16:15:10.248Z,67.63
2019-04-16T16:17:40.538Z,65.50
2019-04-16T16:20:11.721Z,67.00
2019-04-16T16:22:41.346Z,67.23
2019-04-16T16:25:11.841Z,65.53
2019-04-16T16:27:46.850Z,61.83
2019-04-16T16:30:15.023Z,63.07
2019-04-16T16:32:46.031Z,64.03
2019-04-16T16:35:17.729Z,66.73
2019-04-16T16:37:47.736Z,60.47
2019-04-16T16:40:17.483Z,61.07
2019-04-16T16:42:47.124Z,64.80
2019-04-16T16:45:18.592Z,61.57
2019-04-16T16:47:49.003Z,69.13
2019-04-16T16:50:19.388Z,65.47
2019-04-16T16:53:05.611Z,61.83
2019-04-16T16:55:49.848Z,69.63
2019-04-16T16:58:41.498Z,76.40
2019-04-16T17:01:33.620Z,75.03
2019-04-16T17:04:06.803Z,76.40
2019-04-16T17:06:37.453Z,84.43
2019-04-16T17:09:08.802Z,86.20
2019-04-16T17:11:40.158Z,85.63
2019-04-16T17:14:10.554Z,84.72
2019-04-16T17:16:40.925Z,84.97
2019-04-16T17:19:10.624Z,85.10
2019-04-16T17:21:40.960Z,90.37
2019-04-16T17:24:10.680Z,85.40
2019-04-16T17:26:41.019Z,88.07
2019-04-16T17:29:11.336Z,93.63
2019-04-16T17:31:41.116Z,82.33
2019-04-16T17:34:10.775Z,83.93
2019-04-16T17:36:40.472Z,87.27
2019-04-16T17:39:11.986Z,82.00
2019-04-16T17:42:05.187Z,84.13
2019-04-16T17:45:06.242Z,76.47
2019-04-16T17:48:10.273Z,78.63
2019-04-16T17:50:58.382Z,75.63
2019-04-16T17:53:42.058Z,82.87
2019-04-16T17:56:29.643Z,73.60
2019-04-16T17:59:02.785Z,74.83
2019-04-16T18:01:50.207Z,75.73
2019-04-16T18:04:30.659Z,76.10
2019-04-16T18:07:33.757Z,81.27
2019-04-16T18:10:22.797Z,78.67
2019-04-16T18:13:20.323Z,74.13
2019-04-16T18:16:06.510Z,79.60
2019-04-16T18:18:42.968Z,76.53
2019-04-16T18:21:30.581Z,78.53
2019-04-16T18:24:24.679Z,78.10
2019-04-16T18:27:08.117Z,81.20
2019-04-16T18:29:53.311Z,79.87
2019-04-16T18:32:35.900Z,76.13
2019-04-16T18:35:27.854Z,86.70
2019-04-16T18:38:19.124Z,86.00
2019-04-16T18:41:16.803Z,79.87
2019-04-16T18:44:09.098Z,76.23
2019-04-16T18:46:44.883Z,83.00
2019-04-16T18:49:18.214Z,82.23
2019-04-16T18:51:48.539Z,82.93
2019-04-16T18:54:18.920Z,87.67
2019-04-16T18:56:51.173Z,85.27
2019-04-16T18:59:22.960Z,85.77
2019-04-16T19:01:56.558Z,84.60
2019-04-16T19:04:26.175Z,83.83
2019-04-16T19:06:56.420Z,78.37
2019-04-16T19:09:27.020Z,87.12
2019-04-16T19:11:56.832Z,83.20
2019-04-16T19:14:26.428Z,92.80
2019-04-16T19:16:56.887Z,81.97
2019-04-16T19:19:26.679Z,73.13
2019-04-16T19:21:57.142Z,72.53
2019-04-16T19:24:29.372Z,77.17
2019-04-16T19:26:59.897Z,70.23
2019-04-16T19:29:30.351Z,68.97
2019-04-16T19:32:00.876Z,69.70
2019-04-16T19:34:31.207Z,76.73
2019-04-16T19:37:01.662Z,73.93
2019-04-16T19:39:32.032Z,67.27
2019-04-16T19:42:01.768Z,70.73
2019-04-16T19:44:33.477Z,67.77
2019-04-16T19:47:02.613Z,70.60
2019-04-16T19:49:32.347Z,72.53
2019-04-16T19:52:02.018Z,72.47
2019-04-16T19:54:32.304Z,68.03
2019-04-16T19:57:01.999Z,70.30
2019-04-16T19:59:32.305Z,68.30
2019-04-16T20:02:02.403Z,72.33
2019-04-16T20:04:32.663Z,72.37
2019-04-16T20:07:02.440Z,72.72
2019-04-16T20:09:32.702Z,76.63
2019-04-16T20:12:02.440Z,72.57
2019-04-16T20:14:35.604Z,71.80
2019-04-16T20:17:04.718Z,73.17
2019-04-16T20:19:38.380Z,73.63
2019-04-16T20:22:08.111Z,75.57
2019-04-16T20:24:38.453Z,72.23
2019-04-16T20:27:08.900Z,80.23
2019-04-16T20:29:39.300Z,80.23
2019-04-16T20:32:09.049Z,73.77
2019-04-16T20:34:42.400Z,75.00
2019-04-16T20:37:11.404Z,81.20
2019-04-16T20:39:41.130Z,79.27
2019-04-16T20:42:11.455Z,75.63
2019-04-16T20:44:41.159Z,79.10
2019-04-16T20:47:11.463Z,77.13
2019-04-16T20:49:41.167Z,77.87
2019-04-16T20:52:10.803Z,76.63
2019-04-16T20:54:44.329Z,75.50
2019-04-16T20:57:14.601Z,78.03
2019-04-16T20:59:45.020Z,84.30
2019-04-16T21:02:15.356Z,78.30
2019-04-16T21:04:45.688Z,75.40
2019-04-16T21:07:16.048Z,78.93
2019-04-16T21:09:45.761Z,78.57
2019-04-16T21:12:15.376Z,79.67
2019-04-16T21:14:45.633Z,81.27
2019-04-16T21:17:15.997Z,78.50
2019-04-16T21:19:48.010Z,78.83
2019-04-16T21:22:19.596Z,77.78
2019-04-16T21:24:49.965Z,79.40
2019-04-16T21:27:19.706Z,87.50
2019-04-16T21:29:49.326Z,80.70
2019-04-16T21:32:45.588Z,82.17
2019-04-16T21:35:23.858Z,75.57
2019-04-16T21:38:22.201Z,71.33
2019-04-16T21:40:52.763Z,76.67
2019-04-16T21:43:23.963Z,81.07
2019-04-16T21:45:54.266Z,78.93
2019-04-16T21:48:27.099Z,77.97
2019-04-16T21:50:57.022Z,79.57
2019-04-16T21:53:27.966Z,77.70
2019-04-16T21:55:59.243Z,70.60
2019-04-16T21:58:29.623Z,70.33
2019-04-16T22:01:27.358Z,68.93
2019-04-16T22:04:01.391Z,75.97
2019-04-16T22:06:31.844Z,69.72
2019-04-16T22:09:03.240Z,70.90
2019-04-16T22:11:33.008Z,72.00
2019-04-16T22:14:03.832Z,69.07
2019-04-16T22:16:34.306Z,75.22
2019-04-16T22:19:04.068Z,66.93
2019-04-16T22:21:33.739Z,68.07
2019-04-16T22:24:04.092Z,72.27
2019-04-16T22:26:35.275Z,65.30
2019-04-16T22:29:06.123Z,67.93
2019-04-16T22:31:36.584Z,66.43
2019-04-16T22:34:07.116Z,72.37
2019-04-16T22:36:37.651Z,69.43
2019-04-16T22:39:39.836Z,70.50
2019-04-16T22:42:34.383Z,71.67
2019-04-16T22:45:26.657Z,68.93
2019-04-16T22:47:57.363Z,64.90
2019-04-16T22:50:27.827Z,72.23
2019-04-16T22:52:58.283Z,74.43
2019-04-16T22:55:28.727Z,67.43
2019-04-16T22:57:59.857Z,80.90
2019-04-16T23:00:44.495Z,70.63
2019-04-16T23:03:16.580Z,76.37
2019-04-16T23:05:46.800Z,78.27
2019-04-16T23:08:17.211Z,70.30
2019-04-16T23:10:50.644Z,77.00
2019-04-16T23:13:19.661Z,72.90
2019-04-16T23:15:50.110Z,71.83
2019-04-16T23:18:21.381Z,72.17
2019-04-16T23:20:51.830Z,76.40
2019-04-16T23:23:22.347Z,78.80
2019-04-16T23:25:52.765Z,71.43
2019-04-16T23:28:22.566Z,74.63
2019-04-16T23:30:52.909Z,77.33
2019-04-16T23:33:22.663Z,75.17
2019-04-16T23:35:53.000Z,78.10
2019-04-16T23:38:31.150Z,76.97
2019-04-16T23:40:58.667Z,79.93
2019-04-16T23:44:06.487Z,82.67
2019-04-16T23:46:55.837Z,82.10
2019-04-16T23:49:35.071Z,85.30
2019-04-16T23:52:20.457Z,75.20
2019-04-16T23:54:56.314Z,82.27
2019-04-16T23:57:53.632Z,83.43
